sensor_id;sensor_type;location;lat;lon;timestamp;P1;durP1;ratioP1;P2;durP2;ratioP2
64235;SDS011;50564;47.402;9.740;2022-08-19T00:00:07;5.95;;;4.43;;
64235;SDS011;50564;47.402;9.740;2022-08-19T00:05:10;6.32;;;5.32;;
64235;SDS011;50564;47.402;9.740;2022-08-19T00:10:12;9.88;;;5.93;;
64235;SDS011;50564;47.402;9.740;2022-08-19T00:15:15;7.18;;;5.95;;
64235;SDS011;50564;47.402;9.740;2022-08-19T00:20:18;9.45;;;7.03;;
64235;SDS011;50564;47.402;9.740;2022-08-19T00:25:19;9.32;;;6.55;;
64235;SDS011;50564;47.402;9.740;2022-08-19T00:30:20;8.95;;;7.38;;
64235;SDS011;50564;47.402;9.740;2022-08-19T00:35:21;10.70;;;8.98;;
64235;SDS011;50564;47.402;9.740;2022-08-19T00:40:22;13.65;;;11.52;;
64235;SDS011;50564;47.402;9.740;2022-08-19T00:45:25;13.55;;;11.20;;
64235;SDS011;50564;47.402;9.740;2022-08-19T00:50:27;12.40;;;10.05;;
64235;SDS011;50564;47.402;9.740;2022-08-19T00:55:28;10.13;;;7.30;;
64235;SDS011;50564;47.402;9.740;2022-08-19T01:00:29;4.35;;;3.17;;
64235;SDS011;50564;47.402;9.740;2022-08-19T01:05:31;3.85;;;2.60;;
64235;SDS011;50564;47.402;9.740;2022-08-19T01:10:35;3.20;;;2.42;;
64235;SDS011;50564;47.402;9.740;2022-08-19T01:15:43;7.90;;;5.43;;
64235;SDS011;50564;47.402;9.740;2022-08-19T01:20:46;12.00;;;8.50;;
64235;SDS011;50564;47.402;9.740;2022-08-19T01:25:48;23.52;;;18.58;;
64235;SDS011;50564;47.402;9.740;2022-08-19T01:30:51;26.63;;;22.17;;
64235;SDS011;50564;47.402;9.740;2022-08-19T01:35:52;22.63;;;18.73;;
64235;SDS011;50564;47.402;9.740;2022-08-19T01:40:53;18.88;;;16.27;;
64235;SDS011;50564;47.402;9.740;2022-08-19T01:45:54;16.33;;;13.25;;
64235;SDS011;50564;47.402;9.740;2022-08-19T01:50:54;15.18;;;12.93;;
64235;SDS011;50564;47.402;9.740;2022-08-19T01:55:55;10.57;;;8.07;;
64235;SDS011;50564;47.402;9.740;2022-08-19T02:00:56;9.85;;;8.45;;
64235;SDS011;50564;47.402;9.740;2022-08-19T02:05:59;9.77;;;8.30;;
64235;SDS011;50564;47.402;9.740;2022-08-19T02:11:00;9.00;;;7.35;;
64235;SDS011;50564;47.402;9.740;2022-08-19T02:16:01;9.27;;;8.15;;
64235;SDS011;50564;47.402;9.740;2022-08-19T02:21:02;8.25;;;7.28;;
64235;SDS011;50564;47.402;9.740;2022-08-19T02:26:03;14.90;;;12.75;;
64235;SDS011;50564;47.402;9.740;2022-08-19T02:31:08;16.77;;;13.93;;
64235;SDS011;50564;47.402;9.740;2022-08-19T02:36:15;18.42;;;15.18;;
64235;SDS011;50564;47.402;9.740;2022-08-19T02:41:18;16.27;;;14.52;;
64235;SDS011;50564;47.402;9.740;2022-08-19T02:46:24;18.65;;;16.63;;
64235;SDS011;50564;47.402;9.740;2022-08-19T02:51:29;19.50;;;15.05;;
64235;SDS011;50564;47.402;9.740;2022-08-19T02:56:33;13.73;;;11.52;;
64235;SDS011;50564;47.402;9.740;2022-08-19T03:01:34;14.80;;;10.95;;
64235;SDS011;50564;47.402;9.740;2022-08-19T03:06:39;13.82;;;11.32;;
64235;SDS011;50564;47.402;9.740;2022-08-19T03:11:41;12.63;;;11.32;;
64235;SDS011;50564;47.402;9.740;2022-08-19T03:16:51;11.68;;;10.48;;
64235;SDS011;50564;47.402;9.740;2022-08-19T03:21:52;12.27;;;10.88;;
64235;SDS011;50564;47.402;9.740;2022-08-19T03:26:54;13.23;;;11.73;;
64235;SDS011;50564;47.402;9.740;2022-08-19T03:31:59;13.00;;;11.68;;
64235;SDS011;50564;47.402;9.740;2022-08-19T03:37:03;13.68;;;10.80;;
64235;SDS011;50564;47.402;9.740;2022-08-19T03:42:05;12.40;;;10.38;;
64235;SDS011;50564;47.402;9.740;2022-08-19T03:47:06;14.82;;;11.68;;
64235;SDS011;50564;47.402;9.740;2022-08-19T03:52:07;11.98;;;10.65;;
64235;SDS011;50564;47.402;9.740;2022-08-19T03:57:08;10.75;;;9.48;;
64235;SDS011;50564;47.402;9.740;2022-08-19T04:02:09;13.25;;;10.30;;
64235;SDS011;50564;47.402;9.740;2022-08-19T04:07:12;13.07;;;10.85;;
64235;SDS011;50564;47.402;9.740;2022-08-19T04:12:16;16.92;;;11.30;;
64235;SDS011;50564;47.402;9.740;2022-08-19T04:17:16;13.30;;;11.93;;
64235;SDS011;50564;47.402;9.740;2022-08-19T04:22:17;14.57;;;11.95;;
64235;SDS011;50564;47.402;9.740;2022-08-19T04:27:18;14.27;;;12.70;;
64235;SDS011;50564;47.402;9.740;2022-08-19T04:32:19;15.32;;;13.73;;
64235;SDS011;50564;47.402;9.740;2022-08-19T04:37:19;14.10;;;11.65;;
64235;SDS011;50564;47.402;9.740;2022-08-19T04:42:20;14.38;;;12.68;;
64235;SDS011;50564;47.402;9.740;2022-08-19T04:47:39;11.95;;;10.73;;
64235;SDS011;50564;47.402;9.740;2022-08-19T04:52:41;13.52;;;12.13;;
64235;SDS011;50564;47.402;9.740;2022-08-19T04:57:45;14.45;;;12.63;;
64235;SDS011;50564;47.402;9.740;2022-08-19T05:02:45;13.88;;;12.23;;
64235;SDS011;50564;47.402;9.740;2022-08-19T05:07:46;15.50;;;13.00;;
64235;SDS011;50564;47.402;9.740;2022-08-19T05:12:47;13.85;;;12.07;;
64235;SDS011;50564;47.402;9.740;2022-08-19T05:17:47;14.85;;;13.35;;
64235;SDS011;50564;47.402;9.740;2022-08-19T05:23:10;13.48;;;12.07;;
64235;SDS011;50564;47.402;9.740;2022-08-19T05:28:11;14.50;;;12.98;;
64235;SDS011;50564;47.402;9.740;2022-08-19T05:33:11;17.10;;;15.30;;
64235;SDS011;50564;47.402;9.740;2022-08-19T05:38:12;20.20;;;17.35;;
64235;SDS011;50564;47.402;9.740;2022-08-19T05:43:13;23.55;;;20.58;;
64235;SDS011;50564;47.402;9.740;2022-08-19T05:48:17;23.55;;;19.73;;
64235;SDS011;50564;47.402;9.740;2022-08-19T05:53:20;19.05;;;17.08;;
64235;SDS011;50564;47.402;9.740;2022-08-19T05:58:21;19.35;;;17.27;;
64235;SDS011;50564;47.402;9.740;2022-08-19T06:03:21;20.30;;;18.20;;
64235;SDS011;50564;47.402;9.740;2022-08-19T06:08:22;20.52;;;18.08;;
64235;SDS011;50564;47.402;9.740;2022-08-19T06:13:23;19.10;;;15.77;;
64235;SDS011;50564;47.402;9.740;2022-08-19T06:18:24;17.35;;;15.27;;
64235;SDS011;50564;47.402;9.740;2022-08-19T06:23:25;17.77;;;15.43;;
64235;SDS011;50564;47.402;9.740;2022-08-19T06:28:25;17.48;;;15.18;;
64235;SDS011;50564;47.402;9.740;2022-08-19T06:33:26;18.75;;;15.98;;
64235;SDS011;50564;47.402;9.740;2022-08-19T06:38:27;18.77;;;16.25;;
64235;SDS011;50564;47.402;9.740;2022-08-19T06:43:28;19.27;;;15.50;;
64235;SDS011;50564;47.402;9.740;2022-08-19T06:48:29;15.50;;;13.23;;
64235;SDS011;50564;47.402;9.740;2022-08-19T06:53:30;17.95;;;14.50;;
64235;SDS011;50564;47.402;9.740;2022-08-19T06:58:31;15.88;;;14.23;;
64235;SDS011;50564;47.402;9.740;2022-08-19T07:03:35;16.77;;;14.98;;
64235;SDS011;50564;47.402;9.740;2022-08-19T07:08:37;15.32;;;13.70;;
64235;SDS011;50564;47.402;9.740;2022-08-19T07:13:40;17.35;;;13.77;;
64235;SDS011;50564;47.402;9.740;2022-08-19T07:18:43;22.55;;;16.33;;
64235;SDS011;50564;47.402;9.740;2022-08-19T07:23:44;19.30;;;15.52;;
64235;SDS011;50564;47.402;9.740;2022-08-19T07:28:46;20.15;;;15.65;;
64235;SDS011;50564;47.402;9.740;2022-08-19T07:33:48;19.02;;;14.48;;
64235;SDS011;50564;47.402;9.740;2022-08-19T07:38:50;17.65;;;14.40;;
64235;SDS011;50564;47.402;9.740;2022-08-19T07:43:52;18.98;;;16.10;;
64235;SDS011;50564;47.402;9.740;2022-08-19T07:48:53;18.73;;;14.95;;
64235;SDS011;50564;47.402;9.740;2022-08-19T07:53:54;17.02;;;13.82;;
64235;SDS011;50564;47.402;9.740;2022-08-19T07:58:54;17.58;;;14.63;;
64235;SDS011;50564;47.402;9.740;2022-08-19T08:03:56;18.45;;;13.52;;
64235;SDS011;50564;47.402;9.740;2022-08-19T08:09:16;20.05;;;15.65;;
64235;SDS011;50564;47.402;9.740;2022-08-19T08:20:00;28.67;;;21.33;;
64235;SDS011;50564;47.402;9.740;2022-08-19T08:25:04;31.58;;;22.75;;
64235;SDS011;50564;47.402;9.740;2022-08-19T08:30:11;32.58;;;23.95;;
64235;SDS011;50564;47.402;9.740;2022-08-19T08:35:18;30.42;;;21.77;;
64235;SDS011;50564;47.402;9.740;2022-08-19T08:40:30;31.17;;;23.02;;
64235;SDS011;50564;47.402;9.740;2022-08-19T08:45:43;31.23;;;24.05;;
64235;SDS011;50564;47.402;9.740;2022-08-19T08:50:47;30.73;;;23.13;;
64235;SDS011;50564;47.402;9.740;2022-08-19T08:55:50;32.72;;;23.20;;
64235;SDS011;50564;47.402;9.740;2022-08-19T09:00:51;27.02;;;21.95;;
64235;SDS011;50564;47.402;9.740;2022-08-19T09:11:00;25.45;;;20.63;;
64235;SDS011;50564;47.402;9.740;2022-08-19T09:16:07;26.25;;;20.30;;
64235;SDS011;50564;47.402;9.740;2022-08-19T09:21:11;26.23;;;19.73;;
64235;SDS011;50564;47.402;9.740;2022-08-19T09:26:13;24.05;;;18.80;;
64235;SDS011;50564;47.402;9.740;2022-08-19T09:31:17;21.02;;;18.02;;
64235;SDS011;50564;47.402;9.740;2022-08-19T09:36:20;21.67;;;17.15;;
64235;SDS011;50564;47.402;9.740;2022-08-19T09:41:24;20.92;;;16.98;;
64235;SDS011;50564;47.402;9.740;2022-08-19T09:46:26;20.30;;;18.10;;
64235;SDS011;50564;47.402;9.740;2022-08-19T09:51:28;22.60;;;18.55;;
64235;SDS011;50564;47.402;9.740;2022-08-19T09:56:29;22.77;;;18.85;;
64235;SDS011;50564;47.402;9.740;2022-08-19T10:01:30;25.75;;;20.45;;
64235;SDS011;50564;47.402;9.740;2022-08-19T10:06:32;25.20;;;21.05;;
64235;SDS011;50564;47.402;9.740;2022-08-19T10:11:34;25.27;;;20.20;;
64235;SDS011;50564;47.402;9.740;2022-08-19T10:16:35;27.65;;;21.35;;
64235;SDS011;50564;47.402;9.740;2022-08-19T10:21:37;24.75;;;20.90;;
64235;SDS011;50564;47.402;9.740;2022-08-19T10:26:39;28.42;;;23.83;;
64235;SDS011;50564;47.402;9.740;2022-08-19T10:31:45;28.13;;;23.15;;
64235;SDS011;50564;47.402;9.740;2022-08-19T10:36:47;25.83;;;22.02;;
64235;SDS011;50564;47.402;9.740;2022-08-19T10:41:48;26.00;;;21.10;;
64235;SDS011;50564;47.402;9.740;2022-08-19T10:46:49;24.55;;;20.30;;
64235;SDS011;50564;47.402;9.740;2022-08-19T10:51:50;19.70;;;16.35;;
64235;SDS011;50564;47.402;9.740;2022-08-19T10:57:09;17.80;;;14.52;;
64235;SDS011;50564;47.402;9.740;2022-08-19T11:02:10;18.85;;;14.27;;
64235;SDS011;50564;47.402;9.740;2022-08-19T11:07:12;9.82;;;7.65;;
64235;SDS011;50564;47.402;9.740;2022-08-19T11:12:12;8.38;;;5.90;;
64235;SDS011;50564;47.402;9.740;2022-08-19T11:17:13;6.22;;;4.70;;
64235;SDS011;50564;47.402;9.740;2022-08-19T11:22:15;5.50;;;3.83;;
64235;SDS011;50564;47.402;9.740;2022-08-19T11:27:17;6.53;;;3.60;;
64235;SDS011;50564;47.402;9.740;2022-08-19T11:32:19;3.42;;;2.28;;
64235;SDS011;50564;47.402;9.740;2022-08-19T11:37:19;3.25;;;2.65;;
64235;SDS011;50564;47.402;9.740;2022-08-19T11:42:20;5.32;;;2.28;;
64235;SDS011;50564;47.402;9.740;2022-08-19T11:47:39;3.75;;;2.50;;
64235;SDS011;50564;47.402;9.740;2022-08-19T11:52:39;3.55;;;1.90;;
64235;SDS011;50564;47.402;9.740;2022-08-19T11:57:40;2.42;;;1.77;;
64235;SDS011;50564;47.402;9.740;2022-08-19T12:02:43;2.65;;;1.63;;
64235;SDS011;50564;47.402;9.740;2022-08-19T12:07:44;2.40;;;1.70;;
64235;SDS011;50564;47.402;9.740;2022-08-19T12:12:46;2.88;;;1.70;;
64235;SDS011;50564;47.402;9.740;2022-08-19T12:17:47;2.63;;;2.10;;
64235;SDS011;50564;47.402;9.740;2022-08-19T12:22:48;3.65;;;1.88;;
64235;SDS011;50564;47.402;9.740;2022-08-19T12:27:48;5.28;;;2.20;;
64235;SDS011;50564;47.402;9.740;2022-08-19T12:32:50;2.40;;;1.60;;
64235;SDS011;50564;47.402;9.740;2022-08-19T12:37:51;4.00;;;1.67;;
64235;SDS011;50564;47.402;9.740;2022-08-19T12:42:52;3.03;;;1.27;;
64235;SDS011;50564;47.402;9.740;2022-08-19T12:47:54;2.67;;;1.55;;
64235;SDS011;50564;47.402;9.740;2022-08-19T12:52:54;2.25;;;1.55;;
64235;SDS011;50564;47.402;9.740;2022-08-19T12:57:56;2.83;;;1.70;;
64235;SDS011;50564;47.402;9.740;2022-08-19T13:02:57;3.17;;;1.40;;
64235;SDS011;50564;47.402;9.740;2022-08-19T13:07:59;2.53;;;1.58;;
64235;SDS011;50564;47.402;9.740;2022-08-19T13:13:00;1.92;;;1.45;;
64235;SDS011;50564;47.402;9.740;2022-08-19T13:18:02;9.35;;;5.15;;
64235;SDS011;50564;47.402;9.740;2022-08-19T13:23:03;4.22;;;2.58;;
64235;SDS011;50564;47.402;9.740;2022-08-19T13:28:04;3.47;;;1.75;;
64235;SDS011;50564;47.402;9.740;2022-08-19T13:33:06;2.65;;;1.60;;
64235;SDS011;50564;47.402;9.740;2022-08-19T13:38:17;2.08;;;1.77;;
64235;SDS011;50564;47.402;9.740;2022-08-19T13:43:21;2.58;;;1.70;;
64235;SDS011;50564;47.402;9.740;2022-08-19T13:48:24;3.75;;;2.72;;
64235;SDS011;50564;47.402;9.740;2022-08-19T13:53:26;3.83;;;2.65;;
64235;SDS011;50564;47.402;9.740;2022-08-19T13:58:27;4.32;;;3.17;;
64235;SDS011;50564;47.402;9.740;2022-08-19T14:03:28;6.43;;;3.72;;
64235;SDS011;50564;47.402;9.740;2022-08-19T14:08:29;4.78;;;3.78;;
64235;SDS011;50564;47.402;9.740;2022-08-19T14:13:32;6.85;;;4.20;;
64235;SDS011;50564;47.402;9.740;2022-08-19T14:18:34;5.45;;;3.58;;
64235;SDS011;50564;47.402;9.740;2022-08-19T14:23:35;6.70;;;5.07;;
64235;SDS011;50564;47.402;9.740;2022-08-19T14:28:36;6.45;;;5.07;;
64235;SDS011;50564;47.402;9.740;2022-08-19T14:33:37;7.60;;;5.00;;
64235;SDS011;50564;47.402;9.740;2022-08-19T14:38:37;10.95;;;7.80;;
64235;SDS011;50564;47.402;9.740;2022-08-19T14:43:38;10.10;;;7.97;;
64235;SDS011;50564;47.402;9.740;2022-08-19T14:48:39;10.45;;;7.88;;
64235;SDS011;50564;47.402;9.740;2022-08-19T14:53:40;10.65;;;8.30;;
64235;SDS011;50564;47.402;9.740;2022-08-19T14:58:41;10.85;;;7.97;;
64235;SDS011;50564;47.402;9.740;2022-08-19T15:03:42;10.27;;;9.18;;
64235;SDS011;50564;47.402;9.740;2022-08-19T15:08:43;10.93;;;9.07;;
64235;SDS011;50564;47.402;9.740;2022-08-19T15:13:45;12.95;;;10.73;;
64235;SDS011;50564;47.402;9.740;2022-08-19T15:18:48;12.25;;;10.50;;
64235;SDS011;50564;47.402;9.740;2022-08-19T15:23:54;16.00;;;12.60;;
64235;SDS011;50564;47.402;9.740;2022-08-19T15:28:55;14.32;;;12.60;;
64235;SDS011;50564;47.402;9.740;2022-08-19T15:33:56;14.93;;;13.40;;
64235;SDS011;50564;47.402;9.740;2022-08-19T15:38:57;14.15;;;11.82;;
64235;SDS011;50564;47.402;9.740;2022-08-19T15:44:02;14.15;;;11.45;;
64235;SDS011;50564;47.402;9.740;2022-08-19T15:49:05;11.18;;;9.60;;
64235;SDS011;50564;47.402;9.740;2022-08-19T15:54:07;11.00;;;9.85;;
64235;SDS011;50564;47.402;9.740;2022-08-19T15:59:09;24.00;;;18.25;;
64235;SDS011;50564;47.402;9.740;2022-08-19T16:04:28;17.20;;;15.32;;
64235;SDS011;50564;47.402;9.740;2022-08-19T16:09:48;16.67;;;14.95;;
64235;SDS011;50564;47.402;9.740;2022-08-19T16:14:48;13.43;;;12.02;;
64235;SDS011;50564;47.402;9.740;2022-08-19T16:19:49;14.35;;;12.88;;
64235;SDS011;50564;47.402;9.740;2022-08-19T16:24:50;17.00;;;15.20;;
64235;SDS011;50564;47.402;9.740;2022-08-19T16:29:51;15.43;;;13.82;;
64235;SDS011;50564;47.402;9.740;2022-08-19T16:34:52;15.05;;;13.45;;
64235;SDS011;50564;47.402;9.740;2022-08-19T16:39:52;19.60;;;16.88;;
64235;SDS011;50564;47.402;9.740;2022-08-19T16:44:53;18.35;;;14.77;;
64235;SDS011;50564;47.402;9.740;2022-08-19T16:49:54;19.73;;;14.50;;
64235;SDS011;50564;47.402;9.740;2022-08-19T16:54:54;18.98;;;15.98;;
64235;SDS011;50564;47.402;9.740;2022-08-19T16:59:55;17.67;;;15.77;;
64235;SDS011;50564;47.402;9.740;2022-08-19T17:04:56;20.88;;;15.38;;
64235;SDS011;50564;47.402;9.740;2022-08-19T17:09:58;18.25;;;16.35;;
64235;SDS011;50564;47.402;9.740;2022-08-19T17:15:02;17.75;;;15.60;;
64235;SDS011;50564;47.402;9.740;2022-08-19T17:20:04;20.73;;;18.60;;
64235;SDS011;50564;47.402;9.740;2022-08-19T17:25:06;16.40;;;14.40;;
64235;SDS011;50564;47.402;9.740;2022-08-19T17:30:07;15.80;;;14.18;;
64235;SDS011;50564;47.402;9.740;2022-08-19T17:35:08;20.10;;;18.02;;
64235;SDS011;50564;47.402;9.740;2022-08-19T17:40:09;19.65;;;17.55;;
64235;SDS011;50564;47.402;9.740;2022-08-19T17:45:10;20.10;;;18.08;;
64235;SDS011;50564;47.402;9.740;2022-08-19T17:50:12;19.58;;;16.80;;
64235;SDS011;50564;47.402;9.740;2022-08-19T17:55:12;20.33;;;16.98;;
64235;SDS011;50564;47.402;9.740;2022-08-19T18:00:13;18.40;;;16.50;;
64235;SDS011;50564;47.402;9.740;2022-08-19T18:05:16;16.58;;;14.95;;
64235;SDS011;50564;47.402;9.740;2022-08-19T18:10:20;18.33;;;16.50;;
64235;SDS011;50564;47.402;9.740;2022-08-19T18:15:22;19.20;;;17.25;;
64235;SDS011;50564;47.402;9.740;2022-08-19T18:20:25;19.40;;;17.45;;
64235;SDS011;50564;47.402;9.740;2022-08-19T18:25:26;20.48;;;18.42;;
64235;SDS011;50564;47.402;9.740;2022-08-19T18:30:27;20.73;;;18.63;;
64235;SDS011;50564;47.402;9.740;2022-08-19T18:35:33;19.88;;;17.83;;
64235;SDS011;50564;47.402;9.740;2022-08-19T18:40:35;21.35;;;19.17;;
64235;SDS011;50564;47.402;9.740;2022-08-19T18:45:54;24.27;;;21.77;;
64235;SDS011;50564;47.402;9.740;2022-08-19T18:51:14;31.98;;;28.67;;
64235;SDS011;50564;47.402;9.740;2022-08-19T18:56:17;25.52;;;22.08;;
64235;SDS011;50564;47.402;9.740;2022-08-19T19:01:24;23.38;;;20.95;;
64235;SDS011;50564;47.402;9.740;2022-08-19T19:06:31;23.27;;;20.75;;
64235;SDS011;50564;47.402;9.740;2022-08-19T19:11:40;24.45;;;21.80;;
64235;SDS011;50564;47.402;9.740;2022-08-19T19:16:45;24.23;;;20.40;;
64235;SDS011;50564;47.402;9.740;2022-08-19T19:21:47;25.70;;;22.95;;
64235;SDS011;50564;47.402;9.740;2022-08-19T19:26:49;23.75;;;21.27;;
64235;SDS011;50564;47.402;9.740;2022-08-19T19:31:51;21.52;;;19.23;;
64235;SDS011;50564;47.402;9.740;2022-08-19T19:36:52;22.63;;;20.27;;
64235;SDS011;50564;47.402;9.740;2022-08-19T19:41:52;21.35;;;19.25;;
64235;SDS011;50564;47.402;9.740;2022-08-19T19:46:53;21.25;;;19.05;;
64235;SDS011;50564;47.402;9.740;2022-08-19T19:51:55;22.85;;;20.58;;
64235;SDS011;50564;47.402;9.740;2022-08-19T19:56:55;22.17;;;19.90;;
64235;SDS011;50564;47.402;9.740;2022-08-19T20:01:56;20.65;;;18.55;;
64235;SDS011;50564;47.402;9.740;2022-08-19T20:06:57;20.25;;;18.15;;
64235;SDS011;50564;47.402;9.740;2022-08-19T20:11:58;18.67;;;16.88;;
64235;SDS011;50564;47.402;9.740;2022-08-19T20:16:58;22.80;;;20.30;;
64235;SDS011;50564;47.402;9.740;2022-08-19T20:21:59;22.23;;;19.83;;
64235;SDS011;50564;47.402;9.740;2022-08-19T20:27:01;24.23;;;21.70;;
64235;SDS011;50564;47.402;9.740;2022-08-19T20:32:02;27.80;;;24.40;;
64235;SDS011;50564;47.402;9.740;2022-08-19T20:37:03;27.08;;;22.85;;
64235;SDS011;50564;47.402;9.740;2022-08-19T20:42:04;26.75;;;23.75;;
64235;SDS011;50564;47.402;9.740;2022-08-19T20:47:05;34.13;;;28.52;;
64235;SDS011;50564;47.402;9.740;2022-08-19T20:52:05;29.65;;;25.70;;
64235;SDS011;50564;47.402;9.740;2022-08-19T20:57:06;22.23;;;19.23;;
64235;SDS011;50564;47.402;9.740;2022-08-19T21:02:07;18.67;;;15.98;;
64235;SDS011;50564;47.402;9.740;2022-08-19T21:07:09;18.75;;;15.52;;
64235;SDS011;50564;47.402;9.740;2022-08-19T21:12:11;20.52;;;16.77;;
64235;SDS011;50564;47.402;9.740;2022-08-19T21:17:12;20.75;;;17.63;;
64235;SDS011;50564;47.402;9.740;2022-08-19T21:22:13;17.08;;;15.13;;
64235;SDS011;50564;47.402;9.740;2022-08-19T21:27:13;19.35;;;16.95;;
64235;SDS011;50564;47.402;9.740;2022-08-19T21:32:14;23.88;;;20.00;;
64235;SDS011;50564;47.402;9.740;2022-08-19T21:37:14;24.52;;;21.35;;
64235;SDS011;50564;47.402;9.740;2022-08-19T21:42:15;25.52;;;22.27;;
64235;SDS011;50564;47.402;9.740;2022-08-19T21:47:16;24.88;;;19.08;;
64235;SDS011;50564;47.402;9.740;2022-08-19T21:52:23;22.42;;;18.27;;
64235;SDS011;50564;47.402;9.740;2022-08-19T21:57:25;25.00;;;20.15;;
64235;SDS011;50564;47.402;9.740;2022-08-19T22:02:25;24.48;;;20.42;;
64235;SDS011;50564;47.402;9.740;2022-08-19T22:07:27;25.38;;;21.02;;
64235;SDS011;50564;47.402;9.740;2022-08-19T22:12:29;24.05;;;20.88;;
64235;SDS011;50564;47.402;9.740;2022-08-19T22:17:31;20.75;;;18.30;;
64235;SDS011;50564;47.402;9.740;2022-08-19T22:22:32;23.05;;;20.10;;
64235;SDS011;50564;47.402;9.740;2022-08-19T22:27:33;24.95;;;21.23;;
64235;SDS011;50564;47.402;9.740;2022-08-19T22:32:35;26.08;;;22.15;;
64235;SDS011;50564;47.402;9.740;2022-08-19T22:37:36;24.60;;;20.35;;
64235;SDS011;50564;47.402;9.740;2022-08-19T22:42:37;26.05;;;22.05;;
64235;SDS011;50564;47.402;9.740;2022-08-19T22:47:38;25.98;;;21.92;;
64235;SDS011;50564;47.402;9.740;2022-08-19T22:52:39;24.90;;;20.92;;
64235;SDS011;50564;47.402;9.740;2022-08-19T22:57:42;25.60;;;22.30;;
64235;SDS011;50564;47.402;9.740;2022-08-19T23:02:43;28.25;;;23.15;;
64235;SDS011;50564;47.402;9.740;2022-08-19T23:07:44;27.90;;;22.58;;
64235;SDS011;50564;47.402;9.740;2022-08-19T23:12:45;23.35;;;19.63;;
64235;SDS011;50564;47.402;9.740;2022-08-19T23:17:47;26.23;;;21.23;;
64235;SDS011;50564;47.402;9.740;2022-08-19T23:22:48;27.58;;;22.55;;
64235;SDS011;50564;47.402;9.740;2022-08-19T23:27:50;29.13;;;23.60;;
64235;SDS011;50564;47.402;9.740;2022-08-19T23:33:13;30.15;;;23.40;;
64235;SDS011;50564;47.402;9.740;2022-08-19T23:38:14;31.70;;;24.95;;
64235;SDS011;50564;47.402;9.740;2022-08-19T23:43:15;34.03;;;26.95;;
64235;SDS011;50564;47.402;9.740;2022-08-19T23:48:17;37.53;;;29.00;;
64235;SDS011;50564;47.402;9.740;2022-08-19T23:53:18;31.48;;;25.73;;
64235;SDS011;50564;47.402;9.740;2022-08-19T23:58:19;32.83;;;25.88;;
